createdAt,value
2018-04-26T00:00:52.895Z,58.20
2018-04-26T00:03:21.677Z,58.40
2018-04-26T00:05:55.689Z,58.90
2018-04-26T00:08:22.737Z,58.80
2018-04-26T00:10:53.375Z,59.40
2018-04-26T00:13:22.322Z,59.80
2018-04-26T00:15:49.315Z,60.00
2018-04-26T00:18:15.557Z,60.00
2018-04-26T00:20:42.633Z,59.90
2018-04-26T00:23:09.009Z,60.40
2018-04-26T00:25:37.456Z,61.00
2018-04-26T00:28:03.701Z,61.00
2018-04-26T00:30:29.927Z,61.40
2018-04-26T00:32:56.154Z,61.80
2018-04-26T00:35:23.937Z,61.90
2018-04-26T00:37:50.223Z,61.90
2018-04-26T00:40:16.462Z,62.50
2018-04-26T00:42:43.262Z,62.20
2018-04-26T00:45:10.331Z,62.30
2018-04-26T00:47:37.356Z,62.50
2018-04-26T00:50:03.586Z,62.30
2018-04-26T00:52:29.836Z,62.60
2018-04-26T00:54:56.060Z,63.40
2018-04-26T00:57:23.307Z,63.00
2018-04-26T00:59:50.360Z,63.60
2018-04-26T01:02:16.652Z,63.60
2018-04-26T01:04:43.080Z,64.40
2018-04-26T01:07:09.348Z,64.20
2018-04-26T01:09:35.556Z,64.50
2018-04-26T01:12:01.959Z,64.50
2018-04-26T01:14:28.188Z,64.90
2018-04-26T01:16:54.433Z,65.20
2018-04-26T01:19:23.041Z,66.20
2018-04-26T01:21:50.129Z,66.20
2018-04-26T01:24:16.418Z,66.20
2018-04-26T01:26:42.734Z,66.50
2018-04-26T01:29:08.984Z,66.60
2018-04-26T01:31:35.296Z,66.80
2018-04-26T01:34:01.528Z,66.90
2018-04-26T01:36:40.217Z,67.30
2018-04-26T01:39:06.456Z,67.30
2018-04-26T01:41:32.711Z,67.30
2018-04-26T01:43:58.907Z,67.20
2018-04-26T01:46:25.214Z,67.00
2018-04-26T01:48:51.633Z,67.40
2018-04-26T01:51:17.884Z,67.40
2018-04-26T01:53:44.163Z,67.20
2018-04-26T01:56:10.460Z,67.60
2018-04-26T01:58:36.684Z,67.50
2018-04-26T02:01:02.948Z,67.90
2018-04-26T02:03:29.289Z,68.00
2018-04-26T02:05:56.437Z,68.50
2018-04-26T02:08:24.625Z,68.50
2018-04-26T02:10:52.140Z,68.50
2018-04-26T02:13:18.348Z,68.50
2018-04-26T02:15:44.612Z,68.60
2018-04-26T02:18:11.593Z,69.20
2018-04-26T02:20:38.590Z,69.30
2018-04-26T02:23:04.920Z,69.20
2018-04-26T02:25:31.412Z,69.10
2018-04-26T02:27:57.696Z,69.50
2018-04-26T02:30:23.968Z,70.00
2018-04-26T02:32:50.281Z,69.80
2018-04-26T02:35:16.534Z,70.30
2018-04-26T02:37:42.843Z,70.70
2018-04-26T02:40:10.352Z,71.10
2018-04-26T02:42:36.654Z,70.90
2018-04-26T02:45:03.919Z,71.30
2018-04-26T02:47:30.205Z,71.30
2018-04-26T02:49:56.472Z,71.30
2018-04-26T02:52:22.752Z,71.50
2018-04-26T02:54:49.765Z,71.90
2018-04-26T02:57:16.014Z,71.70
2018-04-26T02:59:42.266Z,71.60
2018-04-26T03:02:08.573Z,72.40
2018-04-26T03:04:35.578Z,72.30
2018-04-26T03:07:01.813Z,72.20
2018-04-26T03:09:28.044Z,72.50
2018-04-26T03:11:54.378Z,72.60
2018-04-26T03:14:20.609Z,72.80
2018-04-26T03:16:46.825Z,73.30
2018-04-26T03:19:13.157Z,72.80
2018-04-26T03:21:39.465Z,73.00
2018-04-26T03:24:05.833Z,73.10
2018-04-26T03:26:32.167Z,73.10
2018-04-26T03:28:58.417Z,72.90
2018-04-26T03:31:24.698Z,72.70
2018-04-26T03:33:50.947Z,72.70
2018-04-26T03:36:17.246Z,72.70
2018-04-26T03:38:43.717Z,73.20
2018-04-26T03:41:10.056Z,73.40
2018-04-26T03:43:37.076Z,73.30
2018-04-26T03:46:03.338Z,73.30
2018-04-26T03:48:29.538Z,73.50
2018-04-26T03:50:55.776Z,73.30
2018-04-26T03:53:23.491Z,73.90
2018-04-26T03:55:49.825Z,73.90
2018-04-26T03:58:16.185Z,73.70
2018-04-26T04:00:56.515Z,73.90
2018-04-26T04:03:34.967Z,73.90
2018-04-26T04:06:13.227Z,73.90
2018-04-26T04:08:39.479Z,73.70
2018-04-26T04:11:05.739Z,74.10
2018-04-26T04:13:32.065Z,74.00
2018-04-26T04:15:58.298Z,74.10
2018-04-26T04:18:25.346Z,74.10
2018-04-26T04:20:51.632Z,73.90
2018-04-26T04:23:17.937Z,74.10
2018-04-26T04:25:44.205Z,74.40
2018-04-26T04:28:10.414Z,74.10
2018-04-26T04:30:36.674Z,74.30
2018-04-26T04:33:03.861Z,73.40
2018-04-26T04:35:31.102Z,73.40
2018-04-26T04:37:57.603Z,73.40
2018-04-26T04:40:23.944Z,73.90
2018-04-26T04:42:50.264Z,73.50
2018-04-26T04:45:16.762Z,73.00
2018-04-26T04:47:43.024Z,72.40
2018-04-26T04:50:09.331Z,73.00
2018-04-26T04:52:35.740Z,73.00
2018-04-26T04:55:02.032Z,72.90
2018-04-26T04:57:28.391Z,72.50
2018-04-26T04:59:54.813Z,72.20
2018-04-26T05:02:21.867Z,71.80
2018-04-26T05:04:48.148Z,71.80
2018-04-26T05:07:14.419Z,72.60
2018-04-26T05:09:40.687Z,73.40
2018-04-26T05:12:06.982Z,73.80
2018-04-26T05:14:34.435Z,74.60
2018-04-26T05:17:00.821Z,74.60
2018-04-26T05:19:27.202Z,74.60
2018-04-26T05:21:53.420Z,76.10
2018-04-26T05:24:20.484Z,76.50
2018-04-26T05:26:47.476Z,75.90
2018-04-26T05:29:13.731Z,75.80
2018-04-26T05:31:39.996Z,75.50
2018-04-26T05:34:06.257Z,76.10
2018-04-26T05:36:32.551Z,76.00
2018-04-26T05:38:58.895Z,76.80
2018-04-26T05:41:25.154Z,77.80
2018-04-26T05:43:51.401Z,79.70
2018-04-26T05:46:17.679Z,78.70
2018-04-26T05:48:43.917Z,78.50
2018-04-26T05:51:10.169Z,78.00
2018-04-26T05:53:37.670Z,78.60
2018-04-26T05:56:04.221Z,78.60
2018-04-26T05:58:31.451Z,77.80
2018-04-26T06:00:58.464Z,78.00
2018-04-26T06:03:24.785Z,77.30
2018-04-26T06:05:51.701Z,79.10
2018-04-26T06:08:17.943Z,79.10
2018-04-26T06:10:45.763Z,75.10
2018-04-26T06:13:11.992Z,74.10
2018-04-26T06:15:38.448Z,74.80
2018-04-26T06:18:04.825Z,76.50
2018-04-26T06:20:31.840Z,75.70
2018-04-26T06:22:58.130Z,75.60
2018-04-26T06:25:25.076Z,75.40
2018-04-26T06:27:51.335Z,75.30
2018-04-26T06:30:17.579Z,75.20
2018-04-26T06:32:43.916Z,75.00
2018-04-26T06:35:10.261Z,77.20
2018-04-26T06:37:36.721Z,75.20
2018-04-26T06:40:03.773Z,75.90
2018-04-26T06:42:30.028Z,75.90
2018-04-26T06:44:56.297Z,76.20
2018-04-26T06:47:22.604Z,77.30
2018-04-26T06:49:48.913Z,78.50
2018-04-26T06:52:15.943Z,80.20
2018-04-26T06:54:42.291Z,80.20
2018-04-26T06:57:08.697Z,80.00
2018-04-26T06:59:35.700Z,79.60
2018-04-26T07:02:01.934Z,79.60
2018-04-26T07:04:28.199Z,79.70
2018-04-26T07:06:54.460Z,77.70
2018-04-26T07:09:20.759Z,78.20
2018-04-26T07:11:47.943Z,78.50
2018-04-26T07:14:14.342Z,78.40
2018-04-26T07:16:41.425Z,79.20
2018-04-26T07:19:07.690Z,79.10
2018-04-26T07:21:33.939Z,79.10
2018-04-26T07:24:00.276Z,77.50
2018-04-26T07:26:27.288Z,65.40
2018-04-26T07:28:53.603Z,65.40
2018-04-26T07:31:20.145Z,59.80
2018-04-26T07:33:46.491Z,61.40
2018-04-26T07:36:12.711Z,58.50
2018-04-26T07:38:38.945Z,60.50
2018-04-26T07:41:05.313Z,56.90
2018-04-26T07:43:32.274Z,58.10
2018-04-26T07:45:59.303Z,57.40
2018-04-26T07:48:26.420Z,59.80
2018-04-26T07:50:53.346Z,59.70
2018-04-26T07:53:19.751Z,59.30
2018-04-26T07:55:47.265Z,49.80
2018-04-26T07:58:13.504Z,49.70
2018-04-26T08:00:39.724Z,51.90
2018-04-26T08:03:06.716Z,53.00
2018-04-26T08:05:32.952Z,53.00
2018-04-26T08:07:59.283Z,53.60
2018-04-26T08:10:25.679Z,54.40
2018-04-26T08:12:52.003Z,54.20
2018-04-26T08:15:18.289Z,56.10
2018-04-26T08:17:44.595Z,55.00
2018-04-26T08:20:10.827Z,52.60
2018-04-26T08:22:37.058Z,53.60
2018-04-26T08:25:03.454Z,53.40
2018-04-26T08:27:29.855Z,53.70
2018-04-26T08:29:56.280Z,55.20
2018-04-26T08:32:22.588Z,57.20
2018-04-26T08:34:48.802Z,57.40
2018-04-26T08:37:15.063Z,58.60
2018-04-26T08:39:41.308Z,58.20
2018-04-26T08:42:08.337Z,58.00
2018-04-26T08:44:34.933Z,58.00
2018-04-26T08:47:02.052Z,57.40
2018-04-26T08:49:29.532Z,56.60
2018-04-26T08:51:55.892Z,53.50
2018-04-26T08:54:22.158Z,51.60
2018-04-26T08:56:49.161Z,50.00
2018-04-26T08:59:15.397Z,49.30
2018-04-26T09:01:41.747Z,50.00
2018-04-26T09:04:08.760Z,46.40
2018-04-26T09:06:35.085Z,46.40
2018-04-26T09:09:01.562Z,44.70
2018-04-26T09:11:28.536Z,41.50
2018-04-26T09:13:55.535Z,41.80
2018-04-26T09:16:21.739Z,41.60
2018-04-26T09:18:47.981Z,41.30
2018-04-26T09:21:15.193Z,40.10
2018-04-26T09:23:41.421Z,40.00
2018-04-26T09:26:07.806Z,44.30
2018-04-26T09:28:34.855Z,44.10
2018-04-26T09:31:02.309Z,44.10
2018-04-26T09:33:28.541Z,45.60
2018-04-26T09:35:54.853Z,45.20
2018-04-26T09:38:21.850Z,44.20
2018-04-26T09:40:48.825Z,44.70
2018-04-26T09:43:15.116Z,44.60
2018-04-26T09:45:42.840Z,44.30
2018-04-26T09:48:09.148Z,44.00
2018-04-26T09:50:36.232Z,41.80
2018-04-26T09:53:03.267Z,43.90
2018-04-26T09:55:29.644Z,44.00
2018-04-26T09:57:55.864Z,43.50
2018-04-26T10:00:27.093Z,43.10
2018-04-26T10:02:53.575Z,44.70
2018-04-26T10:05:19.845Z,46.30
2018-04-26T10:07:47.363Z,44.70
2018-04-26T10:10:13.718Z,45.50
2018-04-26T10:12:41.497Z,45.80
2018-04-26T10:15:07.791Z,45.70
2018-04-26T10:17:34.212Z,47.00
2018-04-26T10:20:00.457Z,46.10
2018-04-26T10:22:26.680Z,47.60
2018-04-26T10:24:53.005Z,47.70
2018-04-26T10:27:19.279Z,47.20
2018-04-26T10:29:45.624Z,44.80
2018-04-26T10:32:11.980Z,45.90
2018-04-26T10:34:38.231Z,46.60
2018-04-26T10:37:04.448Z,46.70
2018-04-26T10:39:30.660Z,45.20
2018-04-26T10:41:56.903Z,45.80
2018-04-26T10:44:24.948Z,45.20
2018-04-26T10:46:51.381Z,46.40
2018-04-26T10:49:18.432Z,43.90
2018-04-26T10:51:44.720Z,44.60
2018-04-26T10:54:10.970Z,45.80
2018-04-26T10:56:37.224Z,44.70
2018-04-26T10:59:03.448Z,46.00
2018-04-26T11:01:29.690Z,45.70
2018-04-26T11:03:56.000Z,45.70
2018-04-26T11:06:22.298Z,47.20
2018-04-26T11:08:48.549Z,46.40
2018-04-26T11:11:15.520Z,45.80
2018-04-26T11:13:41.737Z,45.80
2018-04-26T11:16:08.055Z,45.00
2018-04-26T11:18:35.072Z,42.50
2018-04-26T11:21:01.284Z,42.50
2018-04-26T11:23:27.520Z,44.50
2018-04-26T11:25:53.922Z,44.90
2018-04-26T11:28:20.229Z,46.40
2018-04-26T11:30:47.201Z,45.30
2018-04-26T11:33:13.411Z,45.20
2018-04-26T11:35:39.629Z,43.20
2018-04-26T11:38:06.585Z,43.60
2018-04-26T11:40:32.898Z,43.60
2018-04-26T11:42:59.217Z,42.50
2018-04-26T11:45:26.305Z,42.30
2018-04-26T11:47:52.614Z,42.10
2018-04-26T11:50:18.836Z,41.60
2018-04-26T11:52:45.086Z,40.30
2018-04-26T11:55:11.348Z,41.60
2018-04-26T11:57:37.601Z,42.00
2018-04-26T12:00:03.953Z,39.10
2018-04-26T12:02:31.089Z,39.10
2018-04-26T12:04:58.393Z,39.00
2018-04-26T12:07:24.725Z,41.60
2018-04-26T12:09:50.988Z,40.70
2018-04-26T12:12:17.204Z,40.50
2018-04-26T12:14:43.478Z,39.60
2018-04-26T12:17:09.849Z,40.40
2018-04-26T12:19:36.663Z,40.50
2018-04-26T12:22:03.777Z,38.80
2018-04-26T12:24:30.177Z,38.50
2018-04-26T12:26:56.404Z,37.20
2018-04-26T12:29:22.618Z,38.00
2018-04-26T12:31:49.641Z,38.40
2018-04-26T12:34:15.958Z,38.40
2018-04-26T12:36:42.188Z,39.70
2018-04-26T12:39:08.869Z,38.10
2018-04-26T12:41:35.913Z,38.60
2018-04-26T12:44:02.491Z,38.60
2018-04-26T12:46:29.488Z,40.30
2018-04-26T12:48:55.794Z,40.30
2018-04-26T12:51:22.069Z,38.20
2018-04-26T12:53:48.268Z,39.90
2018-04-26T12:56:14.547Z,40.80
2018-04-26T12:58:40.800Z,39.60
2018-04-26T13:01:07.069Z,39.40
2018-04-26T13:03:33.350Z,40.90
2018-04-26T13:05:59.659Z,40.80
2018-04-26T13:08:25.969Z,40.80
2018-04-26T13:10:52.188Z,40.00
2018-04-26T13:13:18.501Z,38.80
2018-04-26T13:15:44.773Z,40.50
2018-04-26T13:18:10.996Z,42.90
2018-04-26T13:20:37.251Z,45.70
2018-04-26T13:23:03.499Z,48.80
2018-04-26T13:25:29.785Z,50.50
2018-04-26T13:27:56.006Z,50.40
2018-04-26T13:30:22.241Z,52.20
2018-04-26T13:32:48.577Z,50.90
2018-04-26T13:35:15.524Z,52.30
2018-04-26T13:37:42.546Z,50.90
2018-04-26T13:40:08.803Z,50.90
2018-04-26T13:42:37.019Z,51.80
2018-04-26T13:45:03.293Z,51.80
2018-04-26T13:47:30.273Z,51.30
2018-04-26T13:49:56.529Z,51.80
2018-04-26T13:52:22.782Z,50.40
2018-04-26T13:54:49.021Z,50.20
2018-04-26T13:57:15.329Z,49.90
2018-04-26T13:59:41.591Z,47.90
2018-04-26T14:02:07.920Z,43.10
2018-04-26T14:04:34.964Z,41.90
2018-04-26T14:07:01.982Z,41.90
2018-04-26T14:09:28.314Z,42.00
2018-04-26T14:11:55.336Z,40.10
2018-04-26T14:14:21.594Z,40.10
2018-04-26T14:16:49.954Z,40.20
2018-04-26T14:19:16.418Z,39.60
2018-04-26T14:21:43.476Z,41.90
2018-04-26T14:24:10.522Z,43.30
2018-04-26T14:26:37.500Z,44.00
2018-04-26T14:29:03.809Z,44.00
2018-04-26T14:31:30.945Z,45.00
2018-04-26T14:33:58.390Z,46.20
2018-04-26T14:36:25.386Z,45.50
2018-04-26T14:38:51.699Z,45.50
2018-04-26T14:41:18.119Z,44.60
2018-04-26T14:43:44.416Z,44.70
2018-04-26T14:46:12.243Z,44.10
2018-04-26T14:48:38.467Z,44.10
2018-04-26T14:51:04.730Z,41.80
2018-04-26T14:53:30.955Z,41.60
2018-04-26T14:55:57.180Z,42.30
2018-04-26T14:58:23.427Z,41.80
2018-04-26T15:00:49.735Z,42.30
2018-04-26T15:03:16.173Z,43.10
2018-04-26T15:05:42.413Z,43.30
2018-04-26T15:08:08.665Z,43.70
2018-04-26T15:10:35.674Z,42.00
2018-04-26T15:13:01.873Z,42.00
2018-04-26T15:15:28.194Z,41.90
2018-04-26T15:17:55.875Z,42.70
2018-04-26T15:20:22.152Z,42.70
2018-04-26T15:22:54.505Z,42.20
2018-04-26T15:25:20.852Z,42.70
2018-04-26T15:27:47.095Z,43.50
2018-04-26T15:30:13.384Z,45.10
2018-04-26T15:32:39.596Z,46.20
2018-04-26T15:35:05.871Z,47.30
2018-04-26T15:37:32.131Z,47.60
2018-04-26T15:39:58.482Z,47.90
2018-04-26T15:42:24.765Z,47.40
2018-04-26T15:44:51.720Z,47.30
2018-04-26T15:47:18.650Z,47.30
2018-04-26T15:49:45.647Z,46.60
2018-04-26T15:52:11.905Z,46.40
2018-04-26T15:54:50.528Z,46.30
2018-04-26T15:57:33.056Z,46.30
2018-04-26T16:00:11.481Z,47.40
2018-04-26T16:02:57.085Z,46.80
2018-04-26T16:05:35.693Z,46.70
2018-04-26T16:08:20.293Z,46.40
2018-04-26T16:11:04.941Z,47.60
2018-04-26T16:13:50.378Z,45.60
2018-04-26T16:16:35.920Z,44.40
2018-04-26T16:19:27.459Z,45.00
2018-04-26T16:22:13.171Z,44.40
2018-04-26T16:24:52.780Z,44.30
2018-04-26T16:27:37.603Z,45.10
2018-04-26T16:30:17.334Z,43.10
2018-04-26T16:33:01.977Z,43.00
2018-04-26T16:35:40.641Z,41.70
2018-04-26T16:38:20.492Z,41.10
2018-04-26T16:40:46.717Z,41.90
2018-04-26T16:43:14.021Z,41.40
2018-04-26T16:45:41.050Z,42.10
2018-04-26T16:48:08.019Z,45.20
2018-04-26T16:50:34.276Z,45.40
2018-04-26T16:53:00.507Z,52.40
2018-04-26T16:55:26.756Z,55.70
2018-04-26T16:57:53.008Z,57.00
2018-04-26T17:00:19.967Z,56.80
2018-04-26T17:02:46.218Z,56.80
2018-04-26T17:05:12.462Z,56.00
2018-04-26T17:07:38.813Z,56.70
2018-04-26T17:10:05.097Z,56.10
2018-04-26T17:12:31.309Z,52.40
2018-04-26T17:14:57.509Z,52.80
2018-04-26T17:17:23.757Z,52.30
2018-04-26T17:19:50.725Z,51.00
2018-04-26T17:22:17.112Z,50.90
2018-04-26T17:24:43.554Z,53.20
2018-04-26T17:27:10.533Z,53.70
2018-04-26T17:29:36.833Z,53.60
2018-04-26T17:32:03.917Z,54.30
2018-04-26T17:34:30.241Z,54.20
2018-04-26T17:36:57.490Z,55.50
2018-04-26T17:39:24.511Z,54.30
2018-04-26T17:41:51.501Z,54.80
2018-04-26T17:44:17.890Z,54.80
2018-04-26T17:46:44.181Z,53.80
2018-04-26T17:49:11.201Z,55.20
2018-04-26T17:51:37.397Z,55.10
2018-04-26T17:54:04.372Z,55.60
2018-04-26T17:56:30.611Z,55.60
2018-04-26T17:58:56.840Z,55.20
2018-04-26T18:01:23.068Z,52.50
2018-04-26T18:03:49.328Z,52.60
2018-04-26T18:06:16.370Z,53.70
2018-04-26T18:08:42.732Z,53.60
2018-04-26T18:11:09.032Z,53.00
2018-04-26T18:13:35.304Z,53.30
2018-04-26T18:16:01.532Z,54.50
2018-04-26T18:18:27.965Z,53.00
2018-04-26T18:20:54.230Z,53.00
2018-04-26T18:23:20.525Z,54.60
2018-04-26T18:25:46.806Z,54.40
2018-04-26T18:28:13.129Z,54.90
2018-04-26T18:30:40.153Z,54.00
2018-04-26T18:33:07.540Z,53.90
2018-04-26T18:35:35.076Z,53.90
2018-04-26T18:38:02.107Z,55.60
2018-04-26T18:40:28.315Z,55.60
2018-04-26T18:42:54.568Z,54.10
2018-04-26T18:45:20.906Z,53.60
2018-04-26T18:47:47.192Z,53.70
2018-04-26T18:50:13.589Z,53.70
2018-04-26T18:52:39.820Z,53.90
2018-04-26T18:55:06.060Z,54.20
2018-04-26T18:57:32.303Z,54.10
2018-04-26T18:59:59.260Z,53.80
2018-04-26T19:02:25.508Z,53.70
2018-04-26T19:04:51.917Z,53.70
2018-04-26T19:07:18.206Z,53.30
2018-04-26T19:09:45.165Z,53.30
2018-04-26T19:12:12.200Z,53.50
2018-04-26T19:14:39.190Z,53.80
2018-04-26T19:17:05.413Z,53.80
2018-04-26T19:19:31.690Z,53.60
2018-04-26T19:21:58.027Z,53.90
2018-04-26T19:24:24.325Z,54.30
2018-04-26T19:26:50.556Z,54.50
2018-04-26T19:29:16.772Z,54.50
2018-04-26T19:31:42.951Z,54.30
2018-04-26T19:34:09.177Z,53.80
2018-04-26T19:36:35.393Z,53.80
2018-04-26T19:39:01.734Z,54.40
2018-04-26T19:41:28.741Z,53.70
2018-04-26T19:43:55.034Z,53.60
2018-04-26T19:46:21.276Z,54.10
2018-04-26T19:48:48.019Z,54.20
2018-04-26T19:51:14.305Z,54.30
2018-04-26T19:53:41.281Z,54.40
2018-04-26T19:56:07.512Z,54.40
2018-04-26T19:58:34.526Z,55.40
2018-04-26T20:01:00.860Z,55.30
2018-04-26T20:03:27.231Z,55.60
2018-04-26T20:05:53.489Z,56.00
2018-04-26T20:08:20.366Z,55.90
2018-04-26T20:10:47.390Z,56.20
2018-04-26T20:13:13.621Z,56.10
2018-04-26T20:15:39.849Z,56.50
2018-04-26T20:18:07.594Z,57.50
2018-04-26T20:20:34.004Z,57.40
2018-04-26T20:23:00.292Z,58.50
2018-04-26T20:25:26.767Z,59.70
2018-04-26T20:27:52.998Z,58.70
2018-04-26T20:30:19.284Z,58.40
2018-04-26T20:32:45.583Z,58.50
2018-04-26T20:35:11.967Z,58.00
2018-04-26T20:37:38.178Z,59.20
2018-04-26T20:40:04.407Z,59.60
2018-04-26T20:42:30.669Z,59.90
2018-04-26T20:44:56.882Z,61.10
2018-04-26T20:47:23.145Z,62.10
2018-04-26T20:49:50.613Z,61.80
2018-04-26T20:52:16.861Z,61.80
2018-04-26T20:54:43.133Z,61.90
2018-04-26T20:57:09.396Z,61.70
2018-04-26T20:59:36.371Z,62.80
2018-04-26T21:02:03.364Z,63.20
2018-04-26T21:04:29.599Z,63.00
2018-04-26T21:06:55.937Z,63.00
2018-04-26T21:09:22.272Z,63.60
2018-04-26T21:11:49.608Z,64.90
2018-04-26T21:14:16.910Z,64.30
2018-04-26T21:16:43.829Z,66.10
2018-04-26T21:19:10.051Z,67.20
2018-04-26T21:21:36.278Z,67.80
2018-04-26T21:24:02.593Z,67.50
2018-04-26T21:26:28.936Z,68.50
2018-04-26T21:28:55.192Z,68.30
2018-04-26T21:31:22.193Z,68.60
2018-04-26T21:33:48.478Z,68.60
2018-04-26T21:36:15.466Z,68.70
2018-04-26T21:38:42.170Z,68.50
2018-04-26T21:41:08.615Z,68.60
2018-04-26T21:43:34.854Z,68.20
2018-04-26T21:46:01.087Z,69.90
2018-04-26T21:48:27.367Z,70.10
2018-04-26T21:50:59.900Z,69.70
2018-04-26T21:53:32.901Z,70.20
2018-04-26T21:56:05.365Z,71.70
2018-04-26T21:58:37.637Z,70.80
2018-04-26T22:01:10.892Z,73.30
2018-04-26T22:06:40.980Z,73.40
2018-04-26T22:09:07.960Z,73.70
2018-04-26T22:11:35.052Z,74.70
2018-04-26T22:14:01.328Z,73.90
2018-04-26T22:16:27.617Z,73.60
2018-04-26T22:18:53.874Z,75.60
2018-04-26T22:21:20.089Z,77.10
2018-04-26T22:23:47.044Z,77.10
2018-04-26T22:26:13.245Z,77.20
2018-04-26T22:28:39.483Z,78.30
2018-04-26T22:31:05.746Z,77.60
2018-04-26T22:33:32.745Z,78.70
2018-04-26T22:35:58.960Z,78.50
2018-04-26T22:38:25.184Z,78.30
2018-04-26T22:40:51.373Z,77.30
2018-04-26T22:43:17.620Z,77.60
2018-04-26T22:45:43.875Z,77.00
2018-04-26T22:48:10.142Z,78.10
2018-04-26T22:50:36.404Z,78.40
2018-04-26T22:53:02.611Z,78.50
2018-04-26T22:55:29.552Z,79.80
2018-04-26T22:57:55.777Z,79.80
2018-04-26T23:00:22.003Z,80.00
2018-04-26T23:02:48.288Z,80.10
2018-04-26T23:05:14.580Z,80.50
2018-04-26T23:07:41.560Z,80.90
2018-04-26T23:10:07.804Z,80.90
2018-04-26T23:12:34.021Z,80.90
2018-04-26T23:15:00.243Z,79.70
2018-04-26T23:17:26.454Z,80.80
2018-04-26T23:19:52.653Z,81.20
2018-04-26T23:22:19.636Z,80.70
2018-04-26T23:24:45.828Z,80.70
2018-04-26T23:27:12.103Z,78.90
2018-04-26T23:29:38.304Z,78.30
2018-04-26T23:32:04.511Z,77.30
2018-04-26T23:34:31.476Z,77.50
2018-04-26T23:36:57.701Z,77.50
2018-04-26T23:39:23.949Z,77.40
2018-04-26T23:41:50.164Z,77.10
2018-04-26T23:44:16.462Z,77.10
2018-04-26T23:46:43.429Z,76.90
2018-04-26T23:49:09.737Z,76.80
2018-04-26T23:51:36.701Z,75.80
2018-04-26T23:54:03.039Z,75.80
2018-04-26T23:56:29.261Z,76.80
2018-04-26T23:58:55.510Z,76.80
